Time;durP1;ratioP1;P1;durP2;ratioP2;P2;SDS_P1;SDS_P2;PMS_P1;PMS_P2;Temp;Humidity;BMP_temperature;BMP_pressure;BME280_temperature;BME280_humidity;BME280_pressure;Samples;Min_cycle;Max_cycle;Signal;HPM_P1;HPM_P2
2022/03/07 00:01:16;;;;;;;3.70;1.60;;;;;;;17.60;39.71;102937.81;5103685;28;20070;-39
2022/03/07 00:03:43;;;;;;;3.75;1.80;;;;;;;17.59;40.17;102934.28;5105488;28;20051;-39
2022/03/07 00:06:10;;;;;;;2.90;1.30;;;;;;;17.58;40.02;102939.75;5098955;28;20666;-39
2022/03/07 00:08:37;;;;;;;2.95;1.45;;;;;;;17.55;39.56;102939.94;5104145;28;20427;-39
2022/03/07 00:11:06;;;;;;;1.85;1.42;;;;;;;17.54;40.04;102941.75;5101066;28;20047;-39
2022/03/07 00:13:34;;;;;;;3.10;1.67;;;;;;;17.53;39.75;102937.38;5101666;28;20063;-39
2022/03/07 00:16:02;;;;;;;1.70;1.20;;;;;;;17.52;39.48;102944.53;5107574;28;20610;-39
2022/03/07 00:18:29;;;;;;;3.20;1.65;;;;;;;17.51;40.25;102941.94;5104421;28;20135;-40
2022/03/07 00:20:56;;;;;;;2.78;1.75;;;;;;;17.48;39.88;102943.00;5104947;28;20046;-39
2022/03/07 00:23:23;;;;;;;1.80;1.30;;;;;;;17.46;39.70;102942.25;5102807;28;20039;-39
2022/03/07 00:25:49;;;;;;;2.20;1.48;;;;;;;17.45;39.59;102945.91;5102440;28;20066;-39
2022/03/07 00:28:16;;;;;;;4.78;1.50;;;;;;;17.45;40.02;102953.09;5104897;28;20138;-39
2022/03/07 00:30:43;;;;;;;2.65;1.42;;;;;;;17.44;39.84;102948.66;5106155;28;20067;-40
2022/03/07 00:33:13;;;;;;;2.10;1.48;;;;;;;17.43;39.67;102957.66;5102726;28;20047;-39
2022/03/07 00:35:40;;;;;;;2.67;1.40;;;;;;;17.41;39.20;102954.25;5103606;28;20048;-40
2022/03/07 00:38:06;;;;;;;2.00;1.40;;;;;;;17.39;39.71;102959.69;5103223;28;20427;-39
2022/03/07 00:40:33;;;;;;;1.92;1.33;;;;;;;17.38;39.79;102957.97;5105945;28;20054;-39
2022/03/07 00:43:00;;;;;;;2.25;1.38;;;;;;;17.37;39.71;102961.63;5104529;28;20073;-39
2022/03/07 00:45:27;;;;;;;2.35;1.60;;;;;;;17.37;39.80;102963.44;5106727;28;20043;-39
2022/03/07 00:47:53;;;;;;;2.58;1.40;;;;;;;17.36;40.13;102959.00;5104104;28;20048;-39
2022/03/07 00:50:20;;;;;;;2.85;1.42;;;;;;;17.35;39.97;102963.53;5098410;28;20716;-39
2022/03/07 00:52:46;;;;;;;2.20;1.35;;;;;;;17.32;39.61;102965.53;5105046;28;20072;-39
2022/03/07 00:55:13;;;;;;;1.92;1.40;;;;;;;17.32;39.72;102963.69;5106194;28;20132;-40
2022/03/07 00:57:39;;;;;;;1.85;1.30;;;;;;;17.30;39.99;102972.81;5103142;28;20126;-39
2022/03/07 01:00:07;;;;;;;1.92;1.25;;;;;;;17.28;40.56;102967.53;5105000;28;20043;-40
2022/03/07 01:02:33;;;;;;;3.35;1.77;;;;;;;17.26;39.52;102972.16;5097320;28;20032;-39
2022/03/07 01:05:00;;;;;;;2.22;1.20;;;;;;;17.26;39.44;102962.28;5104050;28;20063;-39
2022/03/07 01:07:28;;;;;;;2.28;1.52;;;;;;;17.23;39.71;102967.84;5102848;28;20456;-39
2022/03/07 01:09:54;;;;;;;1.75;1.30;;;;;;;17.24;40.53;102966.00;5102607;28;20335;-40
2022/03/07 01:12:21;;;;;;;2.35;1.40;;;;;;;17.20;39.90;102962.66;5104774;28;20522;-39
2022/03/07 01:14:48;;;;;;;2.72;1.55;;;;;;;17.19;39.74;102966.31;5102126;28;20310;-39
2022/03/07 01:17:16;;;;;;;1.95;1.38;;;;;;;17.17;40.03;102965.56;5102566;28;20071;-39
2022/03/07 01:19:43;;;;;;;2.03;1.13;;;;;;;17.17;39.66;102978.97;5102547;28;20130;-39
2022/03/07 01:22:09;;;;;;;4.05;1.60;;;;;;;17.16;39.55;102977.22;5102152;28;20040;-40
2022/03/07 01:24:37;;;;;;;3.78;1.52;;;;;;;17.15;39.80;102972.81;5103348;28;20061;-39
2022/03/07 01:27:04;;;;;;;4.82;1.55;;;;;;;17.13;40.18;102968.53;5105270;28;20071;-39
2022/03/07 01:29:31;;;;;;;2.13;1.50;;;;;;;17.12;40.17;102964.97;5102265;28;20134;-39
2022/03/07 01:31:57;;;;;;;3.08;1.80;;;;;;;17.13;39.79;102973.88;5102076;28;20043;-39
2022/03/07 01:34:24;;;;;;;2.83;1.20;;;;;;;17.12;39.76;102972.13;5102911;28;20043;-39
2022/03/07 01:36:50;;;;;;;2.65;1.42;;;;;;;17.10;39.63;102972.25;5106775;28;20130;-39
2022/03/07 01:39:17;;;;;;;2.35;1.30;;;;;;;17.11;39.55;102967.75;5103986;28;20071;-40
2022/03/07 01:41:43;;;;;;;2.20;1.25;;;;;;;17.09;40.09;102965.19;5097104;28;20075;-40
2022/03/07 01:44:21;;;;;;;2.47;1.38;;;;;;;17.09;39.97;102958.97;5101623;28;20135;-39
2022/03/07 01:46:48;;;;;;;1.80;1.10;;;;;;;17.10;39.57;102971.38;5101590;27;20498;-40
2022/03/07 01:49:15;;;;;;;2.47;1.40;;;;;;;17.09;40.10;102967.84;5100378;28;20047;-39
2022/03/07 01:51:43;;;;;;;1.77;1.35;;;;;;;17.07;40.09;102969.75;5101532;27;20039;-40
2022/03/07 01:54:11;;;;;;;2.22;1.30;;;;;;;17.08;40.04;102966.09;5102478;28;20138;-40
2022/03/07 01:56:38;;;;;;;2.28;1.48;;;;;;;17.06;39.69;102957.31;5105589;28;20051;-39
2022/03/07 01:59:05;;;;;;;2.78;1.30;;;;;;;17.06;39.71;102967.19;5100394;28;20058;-40
2022/03/07 02:01:32;;;;;;;2.08;1.10;;;;;;;17.05;40.28;102960.97;5100927;28;20131;-39
2022/03/07 02:03:59;;;;;;;2.03;1.60;;;;;;;17.04;40.03;102959.22;5100717;28;20051;-39
2022/03/07 02:06:25;;;;;;;1.65;1.02;;;;;;;17.03;39.33;102960.19;5102155;28;20055;-39
2022/03/07 02:08:53;;;;;;;1.85;1.40;;;;;;;17.02;40.09;102956.66;5099975;28;20401;-39
2022/03/07 02:11:21;;;;;;;2.40;1.73;;;;;;;17.03;40.19;102960.19;5099751;28;20054;-39
2022/03/07 02:13:47;;;;;;;2.22;1.42;;;;;;;17.01;40.05;102956.75;5100166;28;20442;-39
2022/03/07 02:16:14;;;;;;;1.85;1.20;;;;;;;17.01;40.55;102951.41;5103954;28;20066;-39
2022/03/07 02:18:42;;;;;;;2.85;1.45;;;;;;;17.00;40.07;102947.84;5099233;28;20055;-39
2022/03/07 02:21:11;;;;;;;1.70;1.13;;;;;;;16.99;40.03;102953.28;5105667;28;20047;-39
2022/03/07 02:23:38;;;;;;;2.47;1.35;;;;;;;17.00;39.72;102949.66;5099704;28;20047;-39
2022/03/07 02:26:15;;;;;;;2.38;1.42;;;;;;;16.97;39.62;102947.19;5101699;28;20134;-39
2022/03/07 02:28:43;;;;;;;2.45;1.45;;;;;;;16.97;40.11;102950.72;5101536;28;20280;-39
2022/03/07 02:31:11;;;;;;;2.03;1.20;;;;;;;16.96;40.24;102951.66;5100791;28;20422;-39
2022/03/07 02:33:38;;;;;;;2.97;1.25;;;;;;;16.95;39.51;102947.25;5103895;28;20051;-38
2022/03/07 02:36:05;;;;;;;4.30;1.30;;;;;;;16.94;39.61;102942.88;5099154;28;20417;-39
2022/03/07 02:38:31;;;;;;;3.70;1.30;;;;;;;16.93;39.45;102942.97;5098692;28;20048;-38
2022/03/07 02:40:58;;;;;;;2.17;1.30;;;;;;;16.93;40.16;102948.34;5100231;28;20505;-39
2022/03/07 02:43:25;;;;;;;3.70;1.60;;;;;;;16.91;40.27;102945.72;5101797;28;20039;-39
2022/03/07 02:45:52;;;;;;;2.53;1.50;;;;;;;16.91;39.66;102944.88;5103809;28;20059;-40
2022/03/07 02:48:19;;;;;;;2.22;1.02;;;;;;;16.89;39.82;102944.13;5101647;28;20083;-40
2022/03/07 02:50:46;;;;;;;2.28;1.40;;;;;;;16.88;39.74;102940.56;5100869;28;20429;-39
2022/03/07 02:53:14;;;;;;;2.30;1.42;;;;;;;16.88;39.74;102939.69;5102626;28;20331;-39
2022/03/07 02:55:40;;;;;;;1.83;1.30;;;;;;;16.85;39.60;102940.78;5099258;28;20454;-39
2022/03/07 02:58:07;;;;;;;1.80;1.20;;;;;;;16.85;40.45;102940.78;5095063;28;20123;-40
2022/03/07 03:00:34;;;;;;;1.70;1.05;;;;;;;16.84;40.14;102939.03;5100846;28;20045;-40
2022/03/07 03:03:00;;;;;;;1.63;1.33;;;;;;;16.82;40.31;102938.28;5101047;28;20039;-39
2022/03/07 03:05:27;;;;;;;2.47;1.35;;;;;;;16.83;40.49;102931.09;5103935;28;20045;-39
2022/03/07 03:07:54;;;;;;;1.70;1.05;;;;;;;16.82;39.76;102932.06;5100330;28;20056;-40
2022/03/07 03:10:21;;;;;;;2.80;1.23;;;;;;;16.81;40.34;102933.03;5098996;28;20072;-40
2022/03/07 03:12:49;;;;;;;2.10;1.30;;;;;;;16.80;39.96;102928.59;5102044;28;20052;-40
2022/03/07 03:15:17;;;;;;;2.50;1.30;;;;;;;16.80;40.64;102931.28;5105173;28;20054;-39
2022/03/07 03:17:45;;;;;;;1.40;1.10;;;;;;;16.81;39.64;102933.03;5098825;28;20095;-40
2022/03/07 03:20:14;;;;;;;2.33;1.42;;;;;;;16.88;39.68;102937.03;5107828;28;20035;-39
2022/03/07 03:22:42;;;;;;;1.75;1.10;;;;;;;16.93;39.20;102937.63;5107742;28;20039;-39
2022/03/07 03:25:10;;;;;;;4.38;1.20;;;;;;;16.98;40.00;102935.50;5108181;28;20058;-39
2022/03/07 03:27:38;;;;;;;1.75;0.95;;;;;;;17.02;40.04;102934.34;5103360;28;20078;-39
2022/03/07 03:30:07;;;;;;;1.70;1.10;;;;;;;17.10;39.72;102933.88;5105012;28;20495;-39
2022/03/07 03:32:33;;;;;;;1.20;1.05;;;;;;;17.14;39.76;102930.06;5102416;28;20032;-39
2022/03/07 03:35:00;;;;;;;2.00;1.20;;;;;;;17.19;40.27;102935.97;5104832;28;20058;-39
2022/03/07 03:37:27;;;;;;;1.67;1.02;;;;;;;17.26;40.22;102932.81;5105071;28;20164;-39
2022/03/07 03:39:54;;;;;;;1.58;0.90;;;;;;;17.35;39.77;102927.81;5102519;28;20051;-38
2022/03/07 03:42:21;;;;;;;2.67;1.13;;;;;;;17.40;39.99;102921.19;5100741;28;20047;-39
2022/03/07 03:44:49;;;;;;;2.55;1.15;;;;;;;17.46;39.80;102926.16;5106575;28;20047;-39
2022/03/07 03:47:15;;;;;;;1.77;1.13;;;;;;;17.52;40.05;102932.94;5104267;28;20056;-39
2022/03/07 03:49:42;;;;;;;2.00;1.30;;;;;;;17.57;39.55;102928.16;5107959;28;20052;-39
2022/03/07 03:52:10;;;;;;;1.50;1.20;;;;;;;17.61;39.53;102920.75;5107165;28;20062;-40
2022/03/07 03:54:36;;;;;;;2.95;0.82;;;;;;;17.64;38.94;102932.16;5103897;28;20138;-39
2022/03/07 03:57:03;;;;;;;1.88;1.25;;;;;;;17.65;39.30;102933.88;5103726;28;20343;-40
2022/03/07 03:59:31;;;;;;;2.13;1.20;;;;;;;17.64;39.10;102932.16;5102839;28;20048;-40
2022/03/07 04:01:59;;;;;;;2.60;1.30;;;;;;;17.63;38.84;102933.13;5105830;28;20454;-39
2022/03/07 04:04:26;;;;;;;1.27;1.02;;;;;;;17.62;39.17;102927.84;5102182;28;20096;-40
2022/03/07 04:06:52;;;;;;;1.55;1.17;;;;;;;17.58;39.05;102929.88;5102555;28;20239;-39
2022/03/07 04:09:27;;;;;;;1.65;1.00;;;;;;;17.55;39.15;102924.72;5107267;28;20319;-39
2022/03/07 04:11:54;;;;;;;1.20;1.10;;;;;;;17.51;39.34;102925.88;5101313;28;20138;-39
2022/03/07 04:14:23;;;;;;;1.27;1.10;;;;;;;17.47;39.68;102924.34;5105270;28;20467;-39
2022/03/07 04:16:55;;;;;;;1.50;1.13;;;;;;;17.43;39.21;102931.72;5104526;28;20436;-39
2022/03/07 04:19:24;;;;;;;2.28;1.10;;;;;;;17.39;39.22;102929.34;5103443;28;20382;-39
2022/03/07 04:21:52;;;;;;;1.80;1.10;;;;;;;17.33;39.18;102919.03;5106728;28;20412;-39
2022/03/07 04:24:20;;;;;;;2.17;1.23;;;;;;;17.25;39.08;102923.06;5103479;28;20044;-40
2022/03/07 04:26:46;;;;;;;2.80;1.08;;;;;;;17.21;39.87;102924.22;5101200;28;20070;-39
2022/03/07 04:29:13;;;;;;;1.30;0.98;;;;;;;17.19;39.21;102922.56;5100404;28;20405;-39
2022/03/07 04:31:42;;;;;;;1.67;1.10;;;;;;;17.16;39.09;102934.34;5102257;28;20047;-40
2022/03/07 04:34:09;;;;;;;2.50;1.08;;;;;;;17.14;39.52;102928.22;5107973;28;20051;-39
2022/03/07 04:36:38;;;;;;;2.13;1.10;;;;;;;17.16;39.83;102934.34;5103385;28;20040;-39
2022/03/07 04:39:07;;;;;;;1.42;1.05;;;;;;;17.18;40.13;102927.06;5105932;28;20147;-40
2022/03/07 04:41:35;;;;;;;2.63;1.15;;;;;;;17.21;39.15;102926.03;5100872;28;20039;-40
2022/03/07 04:44:02;;;;;;;5.10;1.20;;;;;;;17.25;39.89;102933.78;5101574;28;20131;-39
2022/03/07 04:46:29;;;;;;;1.45;0.90;;;;;;;17.31;39.90;102931.66;5102517;28;20047;-39
2022/03/07 04:48:57;;;;;;;1.58;1.00;;;;;;;17.36;39.75;102935.75;5101212;28;20502;-39
2022/03/07 04:51:24;;;;;;;3.17;0.93;;;;;;;17.43;39.94;102936.22;5100749;28;20122;-39
2022/03/07 04:53:51;;;;;;;3.45;1.10;;;;;;;17.49;39.68;102933.16;5104931;28;20135;-39
2022/03/07 04:56:17;;;;;;;1.70;1.10;;;;;;;17.58;39.17;102945.97;5104718;28;20039;-39
2022/03/07 04:58:44;;;;;;;2.25;1.30;;;;;;;17.65;39.28;102941.94;5101367;28;20052;-39
2022/03/07 05:01:13;;;;;;;1.65;1.08;;;;;;;17.72;39.61;102937.88;5104073;28;20058;-39
2022/03/07 05:03:40;;;;;;;2.67;1.08;;;;;;;17.80;39.47;102947.28;5102506;28;20048;-40
2022/03/07 05:06:08;;;;;;;1.73;0.93;;;;;;;17.86;39.03;102941.53;5102511;28;20062;-38
2022/03/07 05:08:38;;;;;;;2.47;1.27;;;;;;;17.93;39.24;102940.13;5103392;28;20179;-39
2022/03/07 05:11:05;;;;;;;2.00;1.20;;;;;;;17.99;38.78;102935.22;5104447;28;20060;-40
2022/03/07 05:13:32;;;;;;;2.67;1.20;;;;;;;18.03;39.27;102941.25;5101438;28;20039;-40
2022/03/07 05:15:59;;;;;;;1.27;1.00;;;;;;;18.07;39.14;102934.72;5100551;28;20351;-40
2022/03/07 05:18:25;;;;;;;1.15;1.02;;;;;;;18.10;38.93;102939.03;5102164;28;20043;-39
2022/03/07 05:20:52;;;;;;;1.15;1.00;;;;;;;18.09;38.70;102927.44;5104268;28;20061;-39
2022/03/07 05:23:27;;;;;;;2.90;1.20;;;;;;;18.10;38.73;102936.34;5103575;28;20411;-38
2022/03/07 05:25:54;;;;;;;1.88;1.20;;;;;;;18.08;38.77;102935.56;5099098;28;20131;-38
2022/03/07 05:28:20;;;;;;;2.20;1.35;;;;;;;18.05;38.56;102939.34;5101675;28;20178;-39
2022/03/07 05:30:48;;;;;;;2.03;0.90;;;;;;;18.00;38.25;102939.63;5103739;28;20043;-39
2022/03/07 05:33:14;;;;;;;1.58;1.27;;;;;;;17.94;38.57;102941.88;5100330;28;20623;-40
2022/03/07 05:35:41;;;;;;;2.35;1.00;;;;;;;17.91;38.28;102942.91;5102207;28;20590;-38
2022/03/07 05:38:08;;;;;;;2.13;1.20;;;;;;;17.86;38.18;102941.53;5105188;28;20053;-39
2022/03/07 05:40:35;;;;;;;2.22;1.15;;;;;;;17.81;38.18;102946.31;5101749;27;20050;-39
2022/03/07 05:43:02;;;;;;;1.98;1.20;;;;;;;17.76;38.92;102944.78;5101230;28;20074;-38
2022/03/07 05:45:28;;;;;;;1.85;1.10;;;;;;;17.71;38.97;102954.06;5100447;28;20064;-38
2022/03/07 05:47:55;;;;;;;2.33;1.42;;;;;;;17.65;39.13;102962.53;5103044;28;20338;-38
2022/03/07 05:50:21;;;;;;;2.22;1.55;;;;;;;17.59;39.33;102957.56;5105810;28;20482;-38
2022/03/07 05:52:48;;;;;;;2.17;1.25;;;;;;;17.55;38.66;102958.72;5100036;28;20040;-38
2022/03/07 05:55:14;;;;;;;1.73;1.00;;;;;;;17.48;38.75;102958.22;5102583;28;20035;-38
2022/03/07 05:57:41;;;;;;;1.55;1.20;;;;;;;17.43;39.16;102965.72;5098163;28;20123;-38
2022/03/07 06:00:09;;;;;;;2.25;1.23;;;;;;;17.36;39.20;102962.56;5100849;28;20170;-38
2022/03/07 06:02:36;;;;;;;3.60;1.35;;;;;;;17.29;39.52;102963.94;5100826;28;20045;-39
2022/03/07 06:05:04;;;;;;;1.50;1.10;;;;;;;17.23;39.42;102969.66;5102124;28;20051;-39
2022/03/07 06:07:31;;;;;;;1.90;1.42;;;;;;;17.18;39.04;102963.72;5101446;28;20315;-38
2022/03/07 06:09:57;;;;;;;2.40;1.25;;;;;;;17.15;39.77;102970.13;5098285;28;20134;-39
2022/03/07 06:12:26;;;;;;;2.85;1.15;;;;;;;17.13;39.49;102966.69;5100647;28;20040;-39
2022/03/07 06:14:54;;;;;;;2.53;1.40;;;;;;;17.11;39.70;102971.28;5096721;28;20136;-38
2022/03/07 06:17:21;;;;;;;1.83;1.27;;;;;;;17.10;39.47;102979.44;5100070;28;20143;-38
2022/03/07 06:19:48;;;;;;;2.05;1.30;;;;;;;17.06;39.45;102984.13;5100978;28;20139;-38
2022/03/07 06:22:15;;;;;;;2.00;1.33;;;;;;;17.03;38.95;102982.47;5098120;28;20036;-39
2022/03/07 06:24:42;;;;;;;3.63;1.60;;;;;;;17.01;39.19;102980.88;5097680;28;20163;-38
2022/03/07 06:27:08;;;;;;;1.40;1.30;;;;;;;16.99;39.32;102980.09;5100340;28;20047;-39
2022/03/07 06:29:35;;;;;;;2.45;1.65;;;;;;;16.96;39.35;102981.13;5095515;28;20039;-38
2022/03/07 06:32:02;;;;;;;3.35;1.58;;;;;;;16.94;39.27;102982.19;5100745;28;20062;-38
2022/03/07 06:34:29;;;;;;;4.80;1.50;;;;;;;16.92;39.30;102973.38;5100398;28;20074;-39
2022/03/07 06:36:55;;;;;;;1.73;1.23;;;;;;;16.90;40.00;102975.31;5098877;28;20142;-40
2022/03/07 06:39:25;;;;;;;3.10;1.60;;;;;;;16.89;39.89;102985.16;5100229;28;20101;-39
2022/03/07 06:41:52;;;;;;;2.33;1.38;;;;;;;16.88;39.19;102982.56;5100285;28;20039;-39
2022/03/07 06:44:19;;;;;;;3.47;1.70;;;;;;;16.88;39.00;102987.91;5097587;28;20419;-38
2022/03/07 06:46:45;;;;;;;3.05;1.38;;;;;;;16.89;39.31;102986.97;5099034;28;20116;-38
2022/03/07 06:49:12;;;;;;;2.22;1.30;;;;;;;16.89;39.28;102984.31;5096805;28;20167;-38
2022/03/07 06:51:39;;;;;;;3.03;1.67;;;;;;;16.88;39.69;102985.22;5099528;28;20134;-40
2022/03/07 06:54:05;;;;;;;3.72;1.95;;;;;;;16.88;39.79;102983.41;5098831;28;20130;-38
2022/03/07 06:56:32;;;;;;;5.63;1.50;;;;;;;16.87;39.93;102981.69;5100229;28;20041;-38
2022/03/07 06:58:59;;;;;;;3.88;1.85;;;;;;;16.88;39.48;102988.75;5099192;28;20126;-38
2022/03/07 07:01:26;;;;;;;4.18;1.80;;;;;;;16.88;39.71;102979.88;5094763;28;20148;-38
2022/03/07 07:03:53;;;;;;;3.55;1.83;;;;;;;16.87;39.18;102988.88;5102095;28;20435;-38
2022/03/07 07:06:19;;;;;;;4.22;1.90;;;;;;;16.86;39.52;102990.69;5099436;28;20062;-38
2022/03/07 07:08:46;;;;;;;5.50;2.08;;;;;;;16.84;39.22;102989.06;5098837;28;20602;-38
2022/03/07 07:11:12;;;;;;;7.93;2.00;;;;;;;16.85;39.85;102988.13;5096196;28;20360;-38
2022/03/07 07:13:39;;;;;;;3.88;1.95;;;;;;;16.85;38.95;102994.34;5096683;28;20032;-39
2022/03/07 07:16:06;;;;;;;4.25;2.03;;;;;;;16.85;39.32;102997.00;5095679;28;20048;-38
2022/03/07 07:18:33;;;;;;;3.05;1.88;;;;;;;16.85;39.42;102991.66;5096934;28;20080;-39
2022/03/07 07:20:59;;;;;;;3.95;2.00;;;;;;;16.85;38.79;102988.97;5100797;28;20059;-38
2022/03/07 07:23:26;;;;;;;3.92;1.70;;;;;;;16.84;39.55;102991.72;5101987;28;20371;-39
2022/03/07 07:25:54;;;;;;;5.63;2.08;;;;;;;16.84;39.06;102999.75;5095365;28;20465;-38
2022/03/07 07:28:20;;;;;;;2.75;1.42;;;;;;;16.82;39.79;102994.50;5101301;28;20097;-38
2022/03/07 07:30:47;;;;;;;3.22;2.30;;;;;;;16.81;39.16;102998.16;5097771;28;20127;-38
2022/03/07 07:33:14;;;;;;;3.38;2.00;;;;;;;16.79;38.89;102994.69;5099755;28;20176;-38
2022/03/07 07:35:41;;;;;;;4.13;2.33;;;;;;;16.80;38.98;103000.91;5097844;28;20093;-38
2022/03/07 07:38:08;;;;;;;6.43;2.35;;;;;;;16.80;39.19;103000.91;5100315;28;20052;-38
2022/03/07 07:40:35;;;;;;;3.70;2.15;;;;;;;16.82;38.74;102996.34;5104371;28;20048;-38
2022/03/07 07:43:02;;;;;;;4.25;1.92;;;;;;;16.82;39.16;102991.84;5102014;28;20050;-38
2022/03/07 07:45:31;;;;;;;4.68;2.38;;;;;;;16.84;38.81;103007.81;5098255;28;20126;-38
2022/03/07 07:47:59;;;;;;;6.45;2.00;;;;;;;16.83;39.53;103001.59;5100718;28;20075;-38
2022/03/07 07:50:27;;;;;;;3.75;2.08;;;;;;;16.84;39.41;103003.31;5102288;28;20445;-38
2022/03/07 07:52:57;;;;;;;5.22;2.35;;;;;;;16.84;38.88;103002.44;5099954;28;20032;-38
2022/03/07 07:55:24;;;;;;;3.38;2.10;;;;;;;16.86;39.03;103000.53;5100212;28;20078;-38
2022/03/07 07:57:51;;;;;;;3.50;2.22;;;;;;;16.88;38.89;102998.63;5099515;28;20044;-38
2022/03/07 08:00:21;;;;;;;4.88;2.17;;;;;;;16.90;38.95;103004.75;5104264;28;20389;-39
2022/03/07 08:02:48;;;;;;;2.78;2.03;;;;;;;16.92;39.45;103000.16;5101844;28;20158;-39
2022/03/07 08:05:17;;;;;;;3.78;2.50;;;;;;;16.93;39.23;103000.09;5101487;28;20371;-37
2022/03/07 08:07:45;;;;;;;3.67;2.13;;;;;;;16.95;39.05;103003.50;5107045;28;20451;-38
2022/03/07 08:10:13;;;;;;;4.35;2.13;;;;;;;16.99;40.01;103004.19;5103063;28;20547;-39
2022/03/07 08:12:40;;;;;;;5.88;3.25;;;;;;;17.03;39.83;103013.75;5106998;28;20039;-38
2022/03/07 08:15:11;;;;;;;6.38;2.83;;;;;;;17.05;39.22;103009.19;5103637;28;20047;-39
2022/03/07 08:17:42;;;;;;;6.25;2.97;;;;;;;17.11;39.32;103013.28;5104022;28;20047;-39
2022/03/07 08:20:09;;;;;;;6.07;2.22;;;;;;;17.15;38.74;103015.69;5106348;28;20043;-39
2022/03/07 08:22:36;;;;;;;6.28;2.80;;;;;;;17.19;39.50;103024.41;5104168;28;20039;-39
2022/03/07 08:25:03;;;;;;;4.60;2.40;;;;;;;17.24;38.94;103014.25;5102109;28;20122;-39
2022/03/07 08:27:30;;;;;;;5.57;2.97;;;;;;;17.28;39.74;103016.63;5103602;28;20079;-38
2022/03/07 08:29:56;;;;;;;6.53;3.63;;;;;;;17.35;39.30;103017.13;5102556;28;20108;-39
2022/03/07 08:32:23;;;;;;;6.75;2.88;;;;;;;17.40;39.35;103016.84;5100667;28;20044;-37
2022/03/07 08:34:49;;;;;;;5.47;3.05;;;;;;;17.44;39.14;103019.22;5097888;28;20032;-37
2022/03/07 08:37:16;;;;;;;6.65;3.15;;;;;;;17.49;38.88;103014.47;5099316;28;20079;-38
2022/03/07 08:39:42;;;;;;;5.47;3.08;;;;;;;17.55;38.92;103012.34;5101308;28;20045;-38
2022/03/07 08:42:09;;;;;;;4.35;3.10;;;;;;;17.58;38.71;103014.81;5105621;28;20135;-38
2022/03/07 08:44:36;;;;;;;4.45;2.83;;;;;;;17.63;39.13;103013.56;5100998;28;20039;-37
2022/03/07 08:47:02;;;;;;;5.18;2.70;;;;;;;17.66;38.90;103008.00;5102410;28;20054;-38
2022/03/07 08:49:29;;;;;;;4.57;3.17;;;;;;;17.72;38.41;103014.78;5102943;28;20051;-39
2022/03/07 08:52:02;;;;;;;4.85;2.92;;;;;;;17.76;38.47;103009.16;5103653;28;20671;-38
2022/03/07 08:54:28;;;;;;;5.95;2.97;;;;;;;17.81;38.26;103008.00;5101940;28;20087;-38
2022/03/07 08:56:55;;;;;;;4.63;2.85;;;;;;;17.83;38.11;103009.63;5101897;28;20047;-38
2022/03/07 08:59:24;;;;;;;5.50;2.85;;;;;;;17.87;38.45;103007.63;5101530;28;20481;-38
2022/03/07 09:01:51;;;;;;;5.65;3.13;;;;;;;17.91;38.02;103006.44;5100264;28;20040;-38
2022/03/07 09:04:17;;;;;;;6.13;3.05;;;;;;;17.94;38.08;103004.44;5100719;28;20048;-38
2022/03/07 09:06:44;;;;;;;4.65;3.00;;;;;;;17.98;37.97;102995.22;5103113;28;20383;-39
2022/03/07 09:09:11;;;;;;;4.68;2.58;;;;;;;18.00;37.71;102998.66;5101260;28;20142;-38
2022/03/07 09:11:57;;;;;;;5.10;2.95;;;;;;;18.05;38.14;102994.81;5099620;28;20040;-39
2022/03/07 09:14:23;;;;;;;4.82;2.85;;;;;;;18.08;38.49;102995.47;5103053;28;20043;-38
2022/03/07 09:16:50;;;;;;;6.65;3.45;;;;;;;18.12;38.18;102988.06;5101173;28;20419;-38
2022/03/07 09:19:17;;;;;;;7.88;3.10;;;;;;;18.15;38.46;102982.50;5101319;28;20046;-38
2022/03/07 09:21:43;;;;;;;5.22;3.08;;;;;;;18.18;38.37;102985.84;5104441;28;20048;-39
2022/03/07 09:24:10;;;;;;;5.07;3.15;;;;;;;18.22;38.32;102983.81;5101110;28;20040;-38
2022/03/07 09:26:36;;;;;;;4.45;2.60;;;;;;;18.25;38.33;102981.81;5101274;28;20097;-38
2022/03/07 09:29:03;;;;;;;4.97;3.15;;;;;;;18.30;38.22;102980.63;5104574;28;20075;-39
2022/03/07 09:31:29;;;;;;;5.65;2.92;;;;;;;18.33;38.18;102981.28;5100430;28;20135;-39
2022/03/07 09:33:57;;;;;;;5.65;3.00;;;;;;;18.37;38.34;102976.53;5098456;28;20055;-39
2022/03/07 09:36:23;;;;;;;5.38;3.08;;;;;;;18.42;38.41;102975.28;5101392;28;20048;-38
2022/03/07 09:38:50;;;;;;;4.00;2.63;;;;;;;18.46;38.81;102974.13;5103500;28;20146;-38
2022/03/07 09:41:18;;;;;;;6.72;3.58;;;;;;;18.52;39.00;102974.66;5101518;28;20105;-38
2022/03/07 09:43:46;;;;;;;7.32;3.53;;;;;;;18.57;39.28;102969.81;5101922;28;20423;-38
2022/03/07 09:46:14;;;;;;;6.30;3.63;;;;;;;18.61;39.72;102974.88;5100039;28;20054;-38
2022/03/07 09:48:43;;;;;;;6.88;4.15;;;;;;;18.66;39.42;102972.75;5102360;28;21810;-38
2022/03/07 09:51:10;;;;;;;9.07;4.00;;;;;;;18.70;39.79;102968.91;5100129;28;20082;-39
2022/03/07 09:53:37;;;;;;;5.88;3.95;;;;;;;18.77;39.09;102968.47;5099982;28;20118;-38
2022/03/07 09:56:04;;;;;;;7.28;3.53;;;;;;;18.80;39.54;102969.13;5101274;28;20512;-38
2022/03/07 09:58:31;;;;;;;6.00;3.63;;;;;;;18.84;39.20;102956.34;5098588;28;20077;-38
2022/03/07 10:01:24;;;;;;;6.90;3.80;;;;;;;18.88;39.34;102965.91;5098488;28;20036;-38
2022/03/07 10:04:03;;;;;;;5.55;3.17;;;;;;;18.91;39.64;102947.75;5100650;28;20047;-39
2022/03/07 10:06:31;;;;;;;8.50;3.92;;;;;;;18.97;39.57;102949.13;5099931;28;20368;-38
2022/03/07 10:08:59;;;;;;;14.40;6.60;;;;;;;19.03;39.43;102948.72;5101572;28;20070;-38
2022/03/07 10:11:30;;;;;;;13.27;7.05;;;;;;;19.07;39.63;102946.66;5100971;28;20047;-40
2022/03/07 10:14:03;;;;;;;13.30;6.50;;;;;;;19.10;39.55;102943.78;5101486;28;20045;-39
2022/03/07 10:16:42;;;;;;;10.45;5.65;;;;;;;19.15;39.18;102934.38;5101615;28;20131;-40
2022/03/07 10:19:11;;;;;;;12.68;6.22;;;;;;;19.22;39.49;102938.38;5099655;28;20062;-40
2022/03/07 10:22:00;;;;;;;13.40;5.45;;;;;;;19.29;39.19;102929.84;5100790;28;20614;-39
2022/03/07 10:24:34;;;;;;;10.23;5.82;;;;;;;19.36;38.91;102928.44;5098782;28;20032;-39
2022/03/07 10:27:01;;;;;;;6.57;4.72;;;;;;;19.41;39.43;102928.94;5100981;28;20082;-39
2022/03/07 10:29:28;;;;;;;10.30;4.88;;;;;;;19.46;38.55;102926.81;5100705;28;20070;-39
2022/03/07 10:31:56;;;;;;;9.23;4.95;;;;;;;19.53;38.66;102919.97;5098186;28;20044;-39
2022/03/07 10:34:25;;;;;;;10.55;5.25;;;;;;;19.56;38.84;102919.75;5097788;28;20435;-40
2022/03/07 10:36:52;;;;;;;8.32;5.07;;;;;;;19.60;37.86;102915.88;5100250;28;20117;-38
2022/03/07 10:39:24;;;;;;;11.98;7.30;;;;;;;19.61;38.60;102914.03;5101176;28;20039;-39
2022/03/07 10:41:51;;;;;;;15.98;7.25;;;;;;;19.61;38.24;102914.03;5101548;28;20519;-39
2022/03/07 10:44:26;;;;;;;10.23;6.60;;;;;;;19.62;38.20;102908.59;5096358;28;20504;-39
2022/03/07 10:46:52;;;;;;;11.30;6.07;;;;;;;19.64;38.38;102903.94;5100028;28;20101;-39
2022/03/07 10:49:20;;;;;;;11.00;5.82;;;;;;;19.65;38.51;102908.34;5102503;28;20048;-39
2022/03/07 10:51:54;;;;;;;9.23;5.63;;;;;;;19.67;37.82;102894.78;5095886;28;20042;-39
2022/03/07 10:54:22;;;;;;;8.82;5.57;;;;;;;19.69;37.73;102898.22;5099657;28;20155;-39
2022/03/07 10:56:54;;;;;;;9.75;5.75;;;;;;;19.69;38.34;102891.00;5097695;28;20395;-38
2022/03/07 10:59:32;;;;;;;11.63;6.07;;;;;;;19.70;38.05;102883.81;5097491;28;20040;-39
2022/03/07 11:02:11;;;;;;;12.35;6.47;;;;;;;19.72;38.13;102881.84;5100482;28;20057;-39
2022/03/07 11:04:39;;;;;;;10.90;5.90;;;;;;;19.74;37.75;102890.69;5097521;28;20036;-40
2022/03/07 11:07:06;;;;;;;9.25;6.00;;;;;;;19.73;37.68;102880.88;5099855;28;20123;-39
2022/03/07 11:09:33;;;;;;;9.35;5.90;;;;;;;19.73;38.18;102887.09;5092613;28;20419;-39
2022/03/07 11:12:00;;;;;;;9.73;5.97;;;;;;;19.73;37.85;102884.41;5100412;28;20134;-39
2022/03/07 11:14:27;;;;;;;10.07;5.47;;;;;;;19.75;37.67;102872.69;5097533;28;20453;-40
2022/03/07 11:16:56;;;;;;;11.02;5.60;;;;;;;19.75;37.93;102868.19;5097559;28;20066;-39
2022/03/07 11:19:28;;;;;;;8.98;5.80;;;;;;;19.75;37.72;102864.63;5099711;28;20082;-40
2022/03/07 11:21:56;;;;;;;8.27;5.00;;;;;;;19.74;38.04;102866.47;5099130;28;20051;-39
2022/03/07 11:24:26;;;;;;;8.55;5.43;;;;;;;19.75;37.29;102860.09;5097359;28;20040;-39
2022/03/07 11:26:55;;;;;;;9.07;5.78;;;;;;;19.75;37.77;102864.63;5098054;28;20142;-39